Time;durP1;ratioP1;P1;durP2;ratioP2;P2;SDS_P1;SDS_P2;PMS_P1;PMS_P2;Temp;Humidity;BMP_temperature;BMP_pressure;BME280_temperature;BME280_humidity;BME280_pressure;Samples;Min_cycle;Max_cycle;Signal;HPM_P1;HPM_P2
2021/11/11 00:00:50;;;;;;;36.38;21.67;;;2.70;49.50;;;;;;5119183;27;20047;-70
2021/11/11 00:03:20;;;;;;;35.83;21.27;;;2.70;49.50;;;;;;5120495;27;20047;-70
2021/11/11 00:05:48;;;;;;;34.45;21.67;;;2.60;49.20;;;;;;5109650;27;20112;-70
2021/11/11 00:08:17;;;;;;;35.03;21.70;;;2.60;49.30;;;;;;5116618;27;20130;-70
2021/11/11 00:10:47;;;;;;;37.45;21.85;;;2.60;49.20;;;;;;5115503;27;20053;-70
2021/11/11 00:13:20;;;;;;;38.60;23.40;;;2.60;49.30;;;;;;5121669;27;20043;-70
2021/11/11 00:15:51;;;;;;;46.03;23.27;;;2.60;49.40;;;;;;5108963;27;20073;-69
2021/11/11 00:18:21;;;;;;;43.88;23.17;;;2.70;49.80;;;;;;5119967;27;20487;-70
2021/11/11 00:20:53;;;;;;;39.67;23.48;;;2.70;49.50;;;;;;5119056;27;20047;-70
2021/11/11 00:23:22;;;;;;;38.53;22.33;;;2.60;49.40;;;;;;5117224;27;20115;-70
2021/11/11 00:25:50;;;;;;;38.33;22.85;;;2.60;49.50;;;;;;5113465;27;20040;-69
2021/11/11 00:28:20;;;;;;;37.55;20.90;;;2.60;49.30;;;;;;5120306;27;20494;-70
2021/11/11 00:30:51;;;;;;;37.78;22.52;;;2.50;48.30;;;;;;5115700;27;20296;-69
2021/11/11 00:33:20;;;;;;;32.95;20.85;;;2.50;48.70;;;;;;5121650;27;20130;-69
2021/11/11 00:35:48;;;;;;;37.30;22.35;;;2.50;49.10;;;;;;5118700;27;20088;-69
2021/11/11 00:38:18;;;;;;;37.72;21.60;;;2.40;49.00;;;;;;5113479;27;20043;-70
2021/11/11 00:40:51;;;;;;;39.00;21.48;;;2.50;49.10;;;;;;5118912;27;20174;-70
2021/11/11 00:43:23;;;;;;;37.05;21.42;;;2.40;48.20;;;;;;5121750;27;20070;-70
2021/11/11 00:45:56;;;;;;;42.47;23.33;;;2.30;48.10;;;;;;5108701;27;20163;-70
2021/11/11 00:48:25;;;;;;;37.97;22.52;;;2.30;48.80;;;;;;5115833;27;20598;-70
2021/11/11 00:50:54;;;;;;;39.55;21.70;;;2.30;48.70;;;;;;5128272;27;20408;-70
2021/11/11 00:53:25;;;;;;;40.17;21.63;;;2.20;48.40;;;;;;5117193;27;20051;-70
2021/11/11 00:55:53;;;;;;;38.60;21.02;;;2.30;49.00;;;;;;5109061;28;20567;-70
2021/11/11 00:58:21;;;;;;;37.75;22.40;;;2.30;49.20;;;;;;5118169;27;20126;-70
2021/11/11 01:01:11;;;;;;;35.03;20.70;;;2.30;49.10;;;;;;5115533;28;20075;-70
2021/11/11 01:03:41;;;;;;;35.95;21.10;;;2.30;49.00;;;;;;5113975;27;20406;-70
2021/11/11 01:06:12;;;;;;;42.10;21.05;;;2.30;49.40;;;;;;5116128;27;20422;-70
2021/11/11 01:08:40;;;;;;;41.45;20.27;;;2.30;49.50;;;;;;5117540;27;20074;-71
2021/11/11 01:11:09;;;;;;;43.95;22.02;;;2.30;49.00;;;;;;5116064;27;20046;-68
2021/11/11 01:13:40;;;;;;;36.85;22.02;;;2.20;48.30;;;;;;5116912;27;20551;-69
2021/11/11 01:16:08;;;;;;;35.70;21.90;;;2.10;48.50;;;;;;5112548;27;20073;-70
2021/11/11 01:18:40;;;;;;;38.85;21.00;;;1.90;48.40;;;;;;5111068;28;20054;-69
2021/11/11 01:21:08;;;;;;;38.63;21.35;;;1.90;48.50;;;;;;5119340;27;20055;-69
2021/11/11 01:23:38;;;;;;;40.05;21.75;;;1.90;48.00;;;;;;5121274;27;20047;-68
2021/11/11 01:26:09;;;;;;;37.00;21.00;;;1.90;48.60;;;;;;5114711;27;20782;-70
2021/11/11 01:28:37;;;;;;;38.05;20.38;;;1.80;47.70;;;;;;5117033;27;20511;-70
2021/11/11 01:31:05;;;;;;;39.85;23.05;;;1.80;47.70;;;;;;5118063;27;20133;-70
2021/11/11 01:33:35;;;;;;;38.15;22.88;;;1.70;47.80;;;;;;5098222;28;20415;-70
2021/11/11 01:36:07;;;;;;;38.00;23.05;;;1.70;48.10;;;;;;5109072;28;20114;-69
2021/11/11 01:38:35;;;;;;;43.05;24.23;;;1.70;47.60;;;;;;5105820;27;20051;-69
2021/11/11 01:41:06;;;;;;;40.00;23.55;;;1.70;47.60;;;;;;5114519;27;20100;-70
2021/11/11 01:43:34;;;;;;;36.35;22.48;;;1.80;48.50;;;;;;5114137;27;20582;-70
2021/11/11 01:46:03;;;;;;;42.72;24.15;;;1.80;48.50;;;;;;5116619;27;20043;-70
2021/11/11 01:48:35;;;;;;;38.88;21.83;;;1.80;48.30;;;;;;5114590;27;20134;-69
2021/11/11 01:51:03;;;;;;;43.67;21.98;;;1.80;48.40;;;;;;5121456;27;20050;-71
2021/11/11 01:53:36;;;;;;;38.83;22.33;;;1.90;48.80;;;;;;5114936;27;20066;-70
2021/11/11 01:56:04;;;;;;;44.15;22.38;;;1.90;48.50;;;;;;5108828;27;20143;-71
2021/11/11 01:58:33;;;;;;;45.28;22.73;;;1.90;48.80;;;;;;5100023;27;20130;-71
2021/11/11 02:01:06;;;;;;;41.38;23.00;;;2.00;49.00;;;;;;5114277;27;20539;-71
2021/11/11 02:03:38;;;;;;;38.42;22.80;;;2.10;49.10;;;;;;5119146;27;20066;-71
2021/11/11 02:06:08;;;;;;;39.63;23.63;;;2.10;48.90;;;;;;5118351;27;20131;-70
2021/11/11 02:08:39;;;;;;;40.50;23.65;;;2.10;49.00;;;;;;5117671;27;20104;-71
2021/11/11 02:11:07;;;;;;;41.17;22.80;;;2.10;48.60;;;;;;5116761;27;20166;-71
2021/11/11 02:13:35;;;;;;;37.42;22.17;;;2.20;48.80;;;;;;5120782;27;21013;-71
2021/11/11 02:16:03;;;;;;;40.10;22.42;;;2.10;48.50;;;;;;5110562;27;20244;-71
2021/11/11 02:18:37;;;;;;;44.72;22.40;;;2.10;48.30;;;;;;5117539;27;20067;-71
2021/11/11 02:21:07;;;;;;;37.88;22.13;;;2.10;48.30;;;;;;5122659;27;20036;-70
2021/11/11 02:23:36;;;;;;;44.92;24.33;;;2.10;48.30;;;;;;5122424;27;20134;-71
2021/11/11 02:26:05;;;;;;;41.83;23.35;;;2.10;48.00;;;;;;5112674;27;20043;-71
2021/11/11 02:28:33;;;;;;;47.10;24.65;;;2.10;48.00;;;;;;5123456;27;20047;-70
2021/11/11 02:31:04;;;;;;;42.53;23.15;;;2.10;48.00;;;;;;5119522;27;20524;-71
2021/11/11 02:33:32;;;;;;;35.08;22.45;;;2.00;47.80;;;;;;5114971;27;20043;-71
2021/11/11 02:36:00;;;;;;;37.10;22.20;;;1.90;47.00;;;;;;5117849;27;20054;-71
2021/11/11 02:38:35;;;;;;;34.72;21.70;;;1.70;46.70;;;;;;5120277;27;20055;-70
2021/11/11 02:41:05;;;;;;;37.90;21.10;;;1.60;46.00;;;;;;5115007;27;20036;-71
2021/11/11 02:43:35;;;;;;;34.45;20.63;;;1.50;45.80;;;;;;5119715;27;20126;-69
2021/11/11 02:46:03;;;;;;;39.80;22.17;;;1.50;46.00;;;;;;5120090;27;20088;-69
2021/11/11 02:48:35;;;;;;;36.33;22.05;;;1.50;47.10;;;;;;5114152;27;20042;-69
2021/11/11 02:51:05;;;;;;;34.78;22.17;;;1.50;46.70;;;;;;5121718;27;20063;-69
2021/11/11 02:53:33;;;;;;;34.45;20.83;;;1.50;47.00;;;;;;5121402;27;20126;-69
2021/11/11 02:56:02;;;;;;;41.50;23.42;;;1.60;47.40;;;;;;5112644;27;20054;-69
2021/11/11 02:58:30;;;;;;;46.00;24.75;;;1.60;46.60;;;;;;5120971;27;20044;-69
2021/11/11 03:01:02;;;;;;;41.90;24.95;;;1.80;47.70;;;;;;5124371;27;20047;-69
2021/11/11 03:03:31;;;;;;;47.22;26.90;;;1.80;47.70;;;;;;5079273;27;20074;-69
2021/11/11 03:06:00;;;;;;;47.78;27.70;;;1.90;47.80;;;;;;5116293;27;20073;-69
2021/11/11 03:08:31;;;;;;;51.97;28.50;;;1.90;47.90;;;;;;5120040;27;20349;-70
2021/11/11 03:11:03;;;;;;;53.65;28.75;;;1.90;47.80;;;;;;5118447;27;20072;-70
2021/11/11 03:13:32;;;;;;;54.25;28.70;;;1.90;47.90;;;;;;5121445;27;20431;-69
2021/11/11 03:16:00;;;;;;;54.85;29.45;;;1.80;48.20;;;;;;5112486;27;20047;-70
2021/11/11 03:18:29;;;;;;;49.47;29.48;;;1.90;48.30;;;;;;5116238;27;20170;-69
2021/11/11 03:20:58;;;;;;;51.58;28.58;;;1.90;48.20;;;;;;5121899;27;20044;-70
2021/11/11 03:23:26;;;;;;;56.47;30.02;;;1.90;48.20;;;;;;5117383;27;20055;-69
2021/11/11 03:25:55;;;;;;;53.20;30.15;;;1.90;47.90;;;;;;5115360;27;20049;-69
2021/11/11 03:28:26;;;;;;;55.60;28.98;;;1.80;47.70;;;;;;5121424;27;20093;-70
2021/11/11 03:30:59;;;;;;;61.95;29.60;;;1.90;47.90;;;;;;5115742;27;20490;-70
2021/11/11 03:33:30;;;;;;;54.70;29.90;;;1.90;47.90;;;;;;5121989;27;20491;-70
2021/11/11 03:36:02;;;;;;;54.00;28.08;;;1.90;48.40;;;;;;5114272;27;20043;-70
2021/11/11 03:38:31;;;;;;;55.53;27.10;;;1.80;47.90;;;;;;5115189;27;20430;-70
2021/11/11 03:41:03;;;;;;;54.63;29.57;;;1.80;48.30;;;;;;5124823;27;20113;-70
2021/11/11 03:43:36;;;;;;;52.63;27.92;;;1.80;48.20;;;;;;5113549;27;20134;-69
2021/11/11 03:46:05;;;;;;;49.85;27.90;;;1.70;47.80;;;;;;5116033;27;20069;-70
2021/11/11 03:48:36;;;;;;;44.83;26.10;;;1.70;47.70;;;;;;5122828;27;20047;-71
2021/11/11 03:51:04;;;;;;;41.75;26.15;;;1.60;48.20;;;;;;5117051;27;20078;-70
2021/11/11 03:53:35;;;;;;;50.92;26.98;;;1.70;48.40;;;;;;5117851;27;20051;-70
2021/11/11 03:56:04;;;;;;;47.72;26.65;;;1.60;47.70;;;;;;5112785;27;20115;-70
2021/11/11 03:58:32;;;;;;;41.78;24.20;;;1.60;48.20;;;;;;5120602;27;20057;-70
2021/11/11 04:01:01;;;;;;;45.55;26.17;;;1.30;47.20;;;;;;5116549;27;20067;-70
2021/11/11 04:03:36;;;;;;;37.30;22.50;;;1.20;45.40;;;;;;5116009;27;20499;-70
2021/11/11 04:06:08;;;;;;;39.05;22.42;;;1.00;45.70;;;;;;5115426;27;20044;-70
2021/11/11 04:08:36;;;;;;;42.15;22.77;;;1.00;45.80;;;;;;5116684;27;23048;-70
2021/11/11 04:11:08;;;;;;;41.75;23.10;;;0.80;45.00;;;;;;5124991;27;20167;-70
2021/11/11 04:13:39;;;;;;;45.80;24.50;;;0.90;46.30;;;;;;5118261;27;20036;-70
2021/11/11 04:16:12;;;;;;;67.13;24.85;;;0.70;45.80;;;;;;5116946;27;20062;-70
2021/11/11 04:18:45;;;;;;;87.38;27.80;;;0.50;44.60;;;;;;5116458;27;20494;-70
2021/11/11 04:21:17;;;;;;;66.40;26.95;;;0.50;46.60;;;;;;5104799;27;20047;-70
2021/11/11 04:23:50;;;;;;;48.33;25.50;;;0.50;46.70;;;;;;5114466;27;20127;-70
2021/11/11 04:26:21;;;;;;;70.35;26.33;;;0.40;46.50;;;;;;5115305;27;20042;-70
2021/11/11 04:28:55;;;;;;;67.53;27.25;;;0.30;46.50;;;;;;5117497;27;20050;-70
2021/11/11 04:31:26;;;;;;;49.60;25.40;;;0.30;47.70;;;;;;5117260;27;20079;-70
2021/11/11 04:34:00;;;;;;;51.97;26.52;;;0.20;47.90;;;;;;5116241;27;20043;-69
2021/11/11 04:42:26;;;;;;;50.05;27.30;;;0.20;48.30;;;;;;5100714;27;20131;-69
2021/11/11 04:45:09;;;;;;;47.90;26.10;;;0.20;48.90;;;;;;5111774;27;21606;-69
2021/11/11 04:47:47;;;;;;;54.85;28.52;;;0.20;49.40;;;;;;5119885;27;20143;-69
2021/11/11 05:01:26;;;;;;;49.83;28.13;;;0.20;50.20;;;;;;5122656;27;20057;-71
2021/11/11 05:03:59;;;;;;;55.58;29.20;;;0.20;50.30;;;;;;5115137;27;20405;-69
2021/11/11 05:06:28;;;;;;;48.03;27.70;;;0.20;50.30;;;;;;5114132;27;20088;-69
2021/11/11 05:08:59;;;;;;;45.97;27.42;;;0.20;50.30;;;;;;5121087;27;20556;-70
2021/11/11 05:11:31;;;;;;;49.17;28.27;;;0.20;50.30;;;;;;5094787;28;20134;-70
2021/11/11 05:14:01;;;;;;;42.38;25.52;;;0.20;49.90;;;;;;5121985;27;20049;-70
2021/11/11 05:16:33;;;;;;;43.95;25.73;;;0.20;50.10;;;;;;5096977;28;20043;-70
2021/11/11 05:19:06;;;;;;;49.13;27.63;;;0.20;49.80;;;;;;5114384;28;20043;-70
2021/11/11 05:21:36;;;;;;;51.35;26.77;;;0.30;50.40;;;;;;5125018;27;20426;-69
2021/11/11 05:24:10;;;;;;;53.08;29.25;;;0.50;50.80;;;;;;5120547;27;20059;-69
2021/11/11 05:26:41;;;;;;;57.13;29.85;;;0.80;51.50;;;;;;5117173;27;20047;-71
2021/11/11 05:29:09;;;;;;;64.80;31.75;;;1.00;51.80;;;;;;5127091;27;20518;-70
2021/11/11 05:31:41;;;;;;;62.65;32.70;;;1.10;51.80;;;;;;5122332;27;20092;-69
2021/11/11 05:34:09;;;;;;;57.10;29.92;;;1.10;51.80;;;;;;5121021;27;20135;-69
2021/11/11 05:36:41;;;;;;;66.00;32.13;;;1.00;51.60;;;;;;5122641;27;20047;-71
2021/11/11 05:39:13;;;;;;;62.05;30.73;;;1.00;51.60;;;;;;5118296;27;20116;-70
2021/11/11 05:41:43;;;;;;;80.50;32.30;;;1.00;51.90;;;;;;5123117;27;20039;-70
2021/11/11 05:44:16;;;;;;;68.28;32.03;;;1.10;52.20;;;;;;5121811;27;20494;-70
2021/11/11 05:46:44;;;;;;;70.50;34.33;;;1.00;52.00;;;;;;5116074;27;20130;-70
2021/11/11 05:49:13;;;;;;;60.92;32.30;;;1.10;52.30;;;;;;5120894;27;20864;-71
2021/11/11 05:51:44;;;;;;;57.63;30.33;;;1.10;52.30;;;;;;5108914;27;20624;-70
2021/11/11 05:54:15;;;;;;;59.53;30.73;;;1.00;52.20;;;;;;5104168;27;20043;-70
2021/11/11 05:56:49;;;;;;;50.75;29.92;;;1.00;52.20;;;;;;5116588;27;20050;-70
2021/11/11 05:59:17;;;;;;;58.67;30.73;;;1.00;52.30;;;;;;5128214;27;20110;-70
2021/11/11 06:01:47;;;;;;;51.03;28.90;;;0.90;52.80;;;;;;5117552;27;20043;-70
2021/11/11 06:04:16;;;;;;;52.08;28.85;;;1.00;52.40;;;;;;5119268;27;20045;-70
2021/11/11 06:06:49;;;;;;;52.97;27.70;;;1.00;52.40;;;;;;5120797;27;20050;-69
2021/11/11 06:09:18;;;;;;;49.20;26.95;;;1.00;52.30;;;;;;5120232;27;20490;-70
2021/11/11 06:11:48;;;;;;;45.63;28.05;;;1.00;52.30;;;;;;5127488;27;20097;-70
2021/11/11 06:14:17;;;;;;;44.63;28.10;;;0.90;52.10;;;;;;5117883;27;20043;-70
2021/11/11 06:16:45;;;;;;;53.30;28.48;;;0.90;52.20;;;;;;5115284;27;20043;-70
2021/11/11 06:19:17;;;;;;;50.55;28.02;;;0.90;52.20;;;;;;5124193;27;20039;-70
2021/11/11 06:21:47;;;;;;;52.58;28.95;;;0.90;52.20;;;;;;5118446;27;20035;-69
2021/11/11 06:24:20;;;;;;;;;;;0.90;52.10;;;;;;5121626;27;20047;-70
2021/11/11 06:26:51;;;;;;;57.83;29.50;;;0.90;52.20;;;;;;5122618;27;20010;-69
2021/11/11 06:29:25;;;;;;;53.08;29.83;;;1.00;52.20;;;;;;5118802;27;20039;-70
2021/11/11 06:31:59;;;;;;;52.88;30.30;;;1.00;52.30;;;;;;5120995;27;20081;-70
2021/11/11 06:34:47;;;;;;;52.97;29.27;;;1.00;52.30;;;;;;5118637;27;20096;-70
2021/11/11 06:37:16;;;;;;;50.45;28.27;;;1.00;52.30;;;;;;5116998;27;20050;-70
2021/11/11 06:39:46;;;;;;;49.80;29.73;;;1.10;52.40;;;;;;5118833;27;20090;-70
2021/11/11 06:42:17;;;;;;;47.15;27.02;;;1.10;52.20;;;;;;5104060;27;20044;-69
2021/11/11 06:44:48;;;;;;;51.58;28.63;;;1.10;52.00;;;;;;5113798;27;20053;-68
2021/11/11 06:47:34;;;;;;;50.20;27.00;;;1.20;52.00;;;;;;5119143;27;20047;-70
2021/11/11 06:50:03;;;;;;;49.38;28.15;;;1.20;52.00;;;;;;5124613;27;20032;-70
2021/11/11 06:52:35;;;;;;;44.22;26.92;;;1.20;51.60;;;;;;5118776;27;20081;-68
2021/11/11 06:55:06;;;;;;;48.03;27.08;;;1.20;51.40;;;;;;5120141;27;20040;-69
2021/11/11 06:57:37;;;;;;;47.95;27.15;;;1.20;51.30;;;;;;5088312;27;20034;-69
2021/11/11 07:00:10;;;;;;;47.15;26.88;;;1.10;51.10;;;;;;5116928;27;20587;-69
2021/11/11 07:02:41;;;;;;;49.42;26.88;;;1.00;50.60;;;;;;5117180;27;20046;-69
2021/11/11 07:05:10;;;;;;;42.03;24.85;;;1.00;50.00;;;;;;5121162;27;20053;-70
2021/11/11 07:07:43;;;;;;;46.97;26.15;;;1.10;49.70;;;;;;5116222;27;20509;-71
2021/11/11 07:10:13;;;;;;;41.33;24.98;;;1.20;50.50;;;;;;5125150;27;20054;-70
2021/11/11 07:12:41;;;;;;;45.80;24.23;;;1.20;49.90;;;;;;5122763;27;20073;-70
2021/11/11 07:15:15;;;;;;;48.03;25.90;;;1.30;49.60;;;;;;5115251;27;20086;-70
2021/11/11 07:17:45;;;;;;;43.28;24.27;;;1.30;48.90;;;;;;5122590;27;20039;-70
2021/11/11 07:20:16;;;;;;;41.60;24.27;;;1.20;48.30;;;;;;5121480;27;20096;-69
2021/11/11 07:22:47;;;;;;;40.72;23.13;;;1.20;49.10;;;;;;5116834;27;20059;-68
2021/11/11 07:25:17;;;;;;;44.92;24.67;;;1.30;48.20;;;;;;5123683;27;20139;-69
2021/11/11 07:27:50;;;;;;;44.00;24.45;;;1.30;47.30;;;;;;5121697;27;20079;-69
2021/11/11 07:30:20;;;;;;;42.80;23.48;;;1.40;48.30;;;;;;5117597;27;20057;-70
2021/11/11 07:32:49;;;;;;;42.65;23.02;;;1.40;47.50;;;;;;5120083;27;20060;-70
2021/11/11 07:35:18;;;;;;;41.13;23.50;;;1.30;44.90;;;;;;5112579;27;20050;-70
2021/11/11 07:37:49;;;;;;;44.38;24.45;;;1.30;45.50;;;;;;5118229;27;20130;-70
2021/11/11 07:40:23;;;;;;;42.47;24.33;;;1.30;45.90;;;;;;5098095;27;20078;-70
2021/11/11 07:42:52;;;;;;;47.03;24.38;;;1.20;47.70;;;;;;5124371;27;20388;-69
2021/11/11 07:45:25;;;;;;;51.22;23.73;;;1.20;46.70;;;;;;5113037;27;20054;-71
2021/11/11 07:47:55;;;;;;;70.15;25.50;;;1.10;45.80;;;;;;5124239;27;20115;-69
2021/11/11 07:50:30;;;;;;;73.80;25.45;;;0.90;46.90;;;;;;5120963;27;20095;-70
2021/11/11 07:53:01;;;;;;;54.08;24.63;;;0.90;47.80;;;;;;5115931;27;20375;-70
2021/11/11 07:55:31;;;;;;;90.95;27.98;;;0.90;48.90;;;;;;5116085;27;20071;-70
2021/11/11 07:58:00;;;;;;;93.72;28.55;;;0.80;46.80;;;;;;5118658;27;20075;-70
2021/11/11 08:00:28;;;;;;;46.17;26.20;;;0.80;48.70;;;;;;5118963;27;20063;-69
2021/11/11 08:03:02;;;;;;;80.60;27.08;;;1.00;49.30;;;;;;5100591;27;20406;-70
2021/11/11 08:05:34;;;;;;;77.55;26.30;;;1.00;49.10;;;;;;5113989;27;20040;-68
2021/11/11 08:08:11;;;;;;;45.40;24.23;;;1.10;49.40;;;;;;5101539;27;20035;-70
2021/11/11 08:10:45;;;;;;;52.20;25.25;;;1.00;47.00;;;;;;5117614;27;20043;-70
2021/11/11 08:13:16;;;;;;;46.00;23.10;;;1.00;48.10;;;;;;5115103;27;20039;-70
2021/11/11 08:15:44;;;;;;;67.93;24.52;;;1.10;48.20;;;;;;5117533;27;20214;-70
2021/11/11 08:18:13;;;;;;;46.10;22.33;;;0.90;46.90;;;;;;5119028;27;20050;-69
2021/11/11 08:20:41;;;;;;;38.13;22.52;;;0.90;49.50;;;;;;5097412;27;20063;-70
2021/11/11 08:23:10;;;;;;;39.92;22.92;;;0.90;50.60;;;;;;5126624;27;20045;-69
2021/11/11 08:25:39;;;;;;;54.65;22.52;;;1.00;50.70;;;;;;5112459;27;20089;-70
2021/11/11 08:28:07;;;;;;;47.03;24.23;;;1.00;48.50;;;;;;5098824;27;20067;-70
2021/11/11 08:30:35;;;;;;;58.13;25.00;;;1.00;49.60;;;;;;5122165;27;20047;-69
2021/11/11 08:33:05;;;;;;;59.65;26.70;;;1.00;49.00;;;;;;5114376;27;20067;-69
2021/11/11 08:35:35;;;;;;;50.72;26.23;;;0.90;49.60;;;;;;5116428;27;20143;-70
2021/11/11 08:38:07;;;;;;;54.72;27.90;;;1.20;51.10;;;;;;5118965;27;20042;-69
2021/11/11 08:40:39;;;;;;;59.72;27.65;;;1.30;50.20;;;;;;5113908;27;20089;-69
2021/11/11 08:43:07;;;;;;;54.83;27.25;;;1.40;48.20;;;;;;5121382;27;20117;-70
2021/11/11 08:45:39;;;;;;;51.15;25.80;;;1.10;46.00;;;;;;5112759;27;20116;-70
2021/11/11 08:48:07;;;;;;;46.35;26.20;;;1.40;49.50;;;;;;5114987;27;20069;-69
2021/11/11 08:50:36;;;;;;;49.08;27.75;;;1.50;48.40;;;;;;5122265;27;20127;-69
2021/11/11 08:53:07;;;;;;;46.70;26.20;;;1.50;48.00;;;;;;5113331;28;20143;-69
2021/11/11 08:55:36;;;;;;;46.95;26.13;;;1.50;48.00;;;;;;5111227;27;20104;-69
2021/11/11 08:58:07;;;;;;;46.42;27.48;;;1.70;48.20;;;;;;5120017;27;20529;-70
2021/11/11 09:00:39;;;;;;;44.25;25.30;;;2.00;48.70;;;;;;5115768;27;20047;-68
2021/11/11 09:03:07;;;;;;;46.03;25.70;;;1.80;44.00;;;;;;5124365;27;20050;-71
2021/11/11 09:05:37;;;;;;;50.10;27.70;;;1.80;44.10;;;;;;5100791;27;20471;-70
2021/11/11 09:08:12;;;;;;;54.78;30.55;;;1.90;45.40;;;;;;5118677;27;20048;-70
2021/11/11 09:10:45;;;;;;;58.17;29.00;;;2.00;44.40;;;;;;5124438;27;20043;-69
2021/11/11 09:13:32;;;;;;;48.03;26.80;;;1.90;43.40;;;;;;5121543;27;20054;-69
2021/11/11 09:16:02;;;;;;;46.33;26.08;;;1.90;41.60;;;;;;5116754;27;20043;-69
2021/11/11 09:18:33;;;;;;;36.38;24.08;;;1.80;42.90;;;;;;5124578;27;20036;-69
2021/11/11 09:21:06;;;;;;;47.25;25.75;;;2.10;41.40;;;;;;5120995;27;20043;-70
2021/11/11 09:23:36;;;;;;;48.00;25.05;;;2.40;40.10;;;;;;5124362;27;20043;-70
2021/11/11 09:26:06;;;;;;;57.45;25.02;;;2.40;40.60;;;;;;5121767;27;20035;-69
2021/11/11 09:28:36;;;;;;;39.13;23.50;;;2.00;40.50;;;;;;5119662;27;20453;-69
2021/11/11 09:31:07;;;;;;;41.70;24.38;;;2.30;43.70;;;;;;5117613;27;20115;-69
2021/11/11 09:33:35;;;;;;;42.53;23.83;;;2.30;40.60;;;;;;5107937;27;20047;-69
2021/11/11 09:36:05;;;;;;;70.97;23.40;;;2.00;41.20;;;;;;5116607;27;20039;-70
2021/11/11 09:38:37;;;;;;;45.10;22.92;;;1.90;43.30;;;;;;5122754;27;20066;-70
2021/11/11 09:41:06;;;;;;;43.80;23.02;;;1.90;41.80;;;;;;5126117;27;20051;-69
2021/11/11 09:43:41;;;;;;;39.97;21.20;;;1.80;43.70;;;;;;5084680;27;20046;-70
2021/11/11 09:46:17;;;;;;;38.47;20.90;;;1.80;45.70;;;;;;5118043;27;20047;-70
2021/11/11 09:48:48;;;;;;;36.42;18.33;;;1.70;47.00;;;;;;5122281;27;20054;-70
2021/11/11 09:51:19;;;;;;;30.60;18.20;;;1.80;46.10;;;;;;5117508;27;20078;-70
2021/11/11 09:53:59;;;;;;;30.65;19.63;;;1.90;45.10;;;;;;5121648;27;20047;-71
2021/11/11 09:59:23;;;;;;;32.08;17.38;;;2.00;42.90;;;;;;5097557;27;20418;-70
2021/11/11 10:01:51;;;;;;;28.63;18.17;;;2.00;42.20;;;;;;5120664;27;20474;-70
2021/11/11 10:04:20;;;;;;;50.92;19.20;;;2.00;44.50;;;;;;5113658;27;20055;-70
2021/11/11 10:06:51;;;;;;;72.70;19.98;;;1.90;42.10;;;;;;5103089;27;20039;-70
2021/11/11 10:09:21;;;;;;;45.35;18.73;;;1.80;42.40;;;;;;5114489;27;20137;-69
2021/11/11 10:11:59;;;;;;;35.15;18.95;;;1.70;43.80;;;;;;5113996;27;20039;-69
2021/11/11 10:14:32;;;;;;;37.00;18.55;;;2.00;46.10;;;;;;5117446;27;20133;-69
2021/11/11 10:17:05;;;;;;;50.30;20.13;;;2.10;45.50;;;;;;5116562;27;20031;-68
2021/11/11 10:19:35;;;;;;;45.85;20.20;;;1.70;40.10;;;;;;5117382;27;20142;-70
2021/11/11 10:22:10;;;;;;;37.45;19.42;;;2.00;46.60;;;;;;5116529;27;20046;-70
2021/11/11 10:24:45;;;;;;;34.67;19.98;;;2.10;46.20;;;;;;5117991;27;20141;-69
2021/11/11 10:27:25;;;;;;;38.75;19.65;;;2.30;46.80;;;;;;5112708;27;20097;-71
2021/11/11 10:30:03;;;;;;;34.92;19.73;;;2.40;42.50;;;;;;5119134;27;20051;-71
2021/11/11 10:32:34;;;;;;;28.50;17.52;;;2.30;38.70;;;;;;5089598;27;20154;-71
2021/11/11 10:35:05;;;;;;;35.42;20.60;;;2.50;41.80;;;;;;5114709;27;20066;-68
2021/11/11 10:37:38;;;;;;;28.88;18.67;;;3.00;43.80;;;;;;5096692;27;20039;-69
2021/11/11 10:40:09;;;;;;;31.17;18.42;;;3.10;40.10;;;;;;5095653;27;20047;-69
2021/11/11 10:42:44;;;;;;;28.85;17.73;;;3.30;35.70;;;;;;5118155;27;20103;-68
2021/11/11 10:45:25;;;;;;;33.30;17.75;;;3.50;34.40;;;;;;5116990;27;20047;-70
2021/11/11 10:48:01;;;;;;;30.50;17.70;;;3.20;33.60;;;;;;5101734;27;20081;-69
2021/11/11 10:50:33;;;;;;;33.08;19.10;;;3.30;33.70;;;;;;5122646;27;20395;-70
2021/11/11 10:53:02;;;;;;;32.53;18.27;;;3.20;35.40;;;;;;5113060;27;20047;-70
2021/11/11 10:55:32;;;;;;;32.80;18.63;;;3.30;37.40;;;;;;5114040;27;20126;-70
2021/11/11 10:58:04;;;;;;;37.00;20.13;;;3.00;35.60;;;;;;5115894;27;20040;-70
2021/11/11 11:00:42;;;;;;;29.73;18.23;;;3.00;38.30;;;;;;5117194;27;20049;-69
2021/11/11 11:03:13;;;;;;;35.25;21.50;;;3.00;38.00;;;;;;5119388;27;20418;-68
2021/11/11 11:05:47;;;;;;;34.53;20.58;;;2.90;40.40;;;;;;5078679;27;20051;-70
2021/11/11 11:08:23;;;;;;;37.00;20.45;;;3.10;40.90;;;;;;5117389;27;20074;-70
2021/11/11 11:10:54;;;;;;;33.22;19.10;;;3.50;40.40;;;;;;5123375;27;20040;-70
2021/11/11 11:13:26;;;;;;;33.05;20.50;;;3.20;36.60;;;;;;5117597;27;20498;-69
2021/11/11 11:16:01;;;;;;;36.45;21.05;;;3.20;40.70;;;;;;5110273;27;20041;-69
2021/11/11 11:18:33;;;;;;;31.88;19.55;;;3.20;38.40;;;;;;5117395;27;20052;-69
2021/11/11 11:21:09;;;;;;;36.33;20.52;;;3.30;38.30;;;;;;5120837;27;20126;-69
2021/11/11 11:23:44;;;;;;;42.15;19.92;;;3.10;40.50;;;;;;5116621;27;20043;-69
2021/11/11 11:26:16;;;;;;;37.05;20.70;;;3.00;40.50;;;;;;5112231;27;20039;-70
2021/11/11 11:31:49;;;;;;;44.03;21.15;;;2.90;43.70;;;;;;5111438;27;20039;-69
2021/11/11 11:34:20;;;;;;;36.90;19.58;;;3.20;44.10;;;;;;5113320;27;20069;-69
2021/11/11 11:36:56;;;;;;;33.28;20.70;;;3.00;44.60;;;;;;5116512;27;20095;-69
2021/11/11 11:39:28;;;;;;;69.57;21.80;;;3.10;46.60;;;;;;5116705;27;20557;-70
2021/11/11 11:41:59;;;;;;;47.50;19.95;;;3.10;42.70;;;;;;5113664;27;20055;-69
2021/11/11 11:44:36;;;;;;;50.15;19.92;;;2.60;43.30;;;;;;5116543;27;20059;-70
2021/11/11 11:47:19;;;;;;;39.58;20.55;;;2.80;45.70;;;;;;5095305;27;20609;-70
2021/11/11 11:50:12;;;;;;;68.63;20.92;;;2.90;46.80;;;;;;5115696;27;20074;-67
2021/11/11 11:52:47;;;;;;;40.58;21.40;;;2.80;47.40;;;;;;5116859;27;20125;-70
2021/11/11 11:55:24;;;;;;;91.90;24.73;;;3.00;47.50;;;;;;5112227;27;20126;-69
2021/11/11 11:57:59;;;;;;;56.33;24.00;;;2.90;47.60;;;;;;5113366;27;20092;-69
2021/11/11 12:00:52;;;;;;;41.47;22.20;;;2.80;44.90;;;;;;5117437;27;20062;-70
2021/11/11 12:03:40;;;;;;;105.18;25.35;;;3.00;48.10;;;;;;5121867;27;20099;-70
2021/11/11 12:09:20;;;;;;;33.78;21.13;;;2.90;46.70;;;;;;5077139;27;20079;-70
2021/11/11 12:14:41;;;;;;;42.65;21.98;;;3.50;48.50;;;;;;5117939;27;20618;-68
2021/11/11 12:17:28;;;;;;;79.68;22.63;;;3.40;43.90;;;;;;5115870;27;20042;-69
2021/11/11 12:40:28;;;;;;;48.17;24.13;;;3.40;45.10;;;;;;5109411;27;20078;-67
2021/11/11 12:43:00;;;;;;;45.70;25.80;;;3.30;49.10;;;;;;5110806;27;20494;-68
2021/11/11 12:45:35;;;;;;;42.72;25.08;;;3.50;51.70;;;;;;5109981;27;20046;-66
2021/11/11 12:48:19;;;;;;;42.67;26.02;;;3.70;49.20;;;;;;5112098;27;20083;-69
2021/11/11 12:50:51;;;;;;;42.22;24.85;;;3.90;48.40;;;;;;5109924;28;20093;-68
2021/11/11 12:53:49;;;;;;;48.88;26.15;;;4.00;46.70;;;;;;5101900;28;20075;-67
2021/11/11 12:56:39;;;;;;;73.45;26.52;;;3.80;44.50;;;;;;5094664;27;20123;-66
2021/11/11 12:59:15;;;;;;;41.67;23.88;;;3.70;43.30;;;;;;5065063;27;20056;-69
2021/11/11 13:01:53;;;;;;;102.53;29.13;;;3.70;46.40;;;;;;5113936;27;20494;-69
2021/11/11 13:04:23;;;;;;;47.45;25.83;;;3.50;47.00;;;;;;5112026;28;20063;-68
2021/11/11 13:06:55;;;;;;;47.17;26.42;;;3.60;49.10;;;;;;5103275;28;20039;-68
2021/11/11 13:09:29;;;;;;;57.97;26.42;;;3.60;46.60;;;;;;5118979;27;20110;-68
2021/11/11 13:12:12;;;;;;;43.72;24.98;;;3.50;47.10;;;;;;5118380;27;20084;-68
2021/11/11 13:14:54;;;;;;;43.15;26.45;;;3.50;46.30;;;;;;5111718;27;20047;-67
2021/11/11 13:17:25;;;;;;;64.90;25.70;;;3.60;48.30;;;;;;5115299;27;20055;-68
2021/11/11 13:20:00;;;;;;;57.03;26.52;;;3.50;45.40;;;;;;5120095;27;20126;-68
2021/11/11 13:22:42;;;;;;;80.57;28.70;;;3.50;48.30;;;;;;5113686;27;20039;-68
2021/11/11 13:25:29;;;;;;;49.72;26.65;;;3.40;46.30;;;;;;5114060;27;20116;-67
2021/11/11 13:28:33;;;;;;;44.80;25.92;;;3.50;48.70;;;;;;5118312;27;20042;-68
2021/11/11 13:58:40;;;;;;;40.85;24.25;;;4.20;41.50;;;;;;5112716;27;20290;-69
2021/11/11 14:00:33;;;;;;;42.75;24.63;;;4.10;43.20;;;;;;5117158;27;20119;-69
2021/11/11 15:17:21;;;;;;;78.53;36.33;;;3.70;55.80;;;;;;5034851;28;20495;-67
2021/11/11 15:57:29;;;;;;;167.32;35.15;;;3.70;57.20;;;;;;5071226;27;20414;-69
2021/11/11 16:00:14;;;;;;;107.13;32.97;;;3.30;56.60;;;;;;5101116;27;20074;-69
2021/11/11 16:02:57;;;;;;;157.27;37.30;;;3.40;56.90;;;;;;5109644;27;20492;-69
2021/11/11 16:19:58;;;;;;;254.48;42.78;;;3.40;58.00;;;;;;5109027;27;20035;-69
2021/11/11 16:22:31;;;;;;;220.80;40.00;;;3.40;58.30;;;;;;5092131;27;20108;-70